PWSweather.com
Personal Weather Stations
Station Observations
KCOGRAND2
Redlands, Southcamp Road & Dakota Circle, Grand Junction, CO 81507

Redlands, Southcamp Road & Dakota CircleGrand Junction, CO 81507

Lat: 39.055, Lon: -108.637

Elevation: 4870

Station Type: RadioShack WX200

High Low Average
Temperature 96.3°F35.7°F 21.2°F-6.0°F 80.9°F27.2°F
Dew Point 49.1°F9.5°F 25.7°F-3.5°F 41.9°F5.5°F
Winds 17.0 mph N27.4 mph N Calm Calm 4.9 mph 7.9 mph
Wind Gusts 29.1 mph46.8 mph -- 8.6 mph13.8 mph
Humidity 48% 11% 31%
Pressure 25.25 in855.10 in 25.10 in850.00 in -
Precipitation 0.00 in0.00 in - -
Hour Temp Dew Point Humidity Winds Wind Gusts Pressure Precip Precip Rate Daily Precip Total
12:03 AM 76.3°F24.6°C 42.6°F5.9°C 30% 6.0 mph N9.7 kmh N 10.5 mph16.9 kmh 25.19 in853.0 mb 0.00 in0.0 mm 0.00 in/hr0.0 mm/hr 0.00 in0.0 mm
12:08 AM 75.4°F24.1°C 43.5°F6.4°C 32% 5.0 mph NNE8.0 kmh NNE 7.4 mph11.9 kmh 25.19 in853.0 mb 0.00 in0.0 mm 0.00 in/hr0.0 mm/hr 0.00 in0.0 mm
12:13 AM 75.0°F23.9°C 43.2°F6.2°C 32% 4.0 mph NNE6.4 kmh NNE 6.9 mph11.1 kmh 25.19 in853.0 mb 0.00 in0.0 mm 0.00 in/hr0.0 mm/hr 0.00 in0.0 mm
12:18 AM 74.7°F23.7°C 43.7°F6.5°C 33% 4.0 mph NE6.4 kmh NE 6.7 mph10.8 kmh 25.19 in853.0 mb 0.00 in0.0 mm 0.00 in/hr0.0 mm/hr 0.00 in0.0 mm
12:23 AM 75.0°F23.9°C 43.2°F6.2°C 32% 5.0 mph NNE8.0 kmh NNE 6.3 mph10.1 kmh 25.19 in853.0 mb 0.00 in0.0 mm 0.00 in/hr0.0 mm/hr 0.00 in0.0 mm
12:28 AM 74.8°F23.8°C 43.7°F6.5°C 33% 4.0 mph NNE6.4 kmh NNE 6.7 mph10.8 kmh 25.19 in853.0 mb 0.00 in0.0 mm 0.00 in/hr0.0 mm/hr 0.00 in0.0 mm
12:33 AM 74.5°F23.6°C 43.5°F6.4°C 33% 5.0 mph NNE8.0 kmh NNE 6.7 mph10.8 kmh 25.19 in853.0 mb 0.00 in0.0 mm 0.00 in/hr0.0 mm/hr 0.00 in0.0 mm
12:38 AM 75.4°F24.1°C 43.5°F6.4°C 32% 5.0 mph NNE8.0 kmh NNE 8.3 mph13.4 kmh 25.19 in853.0 mb 0.00 in0.0 mm 0.00 in/hr0.0 mm/hr 0.00 in0.0 mm
12:43 AM 74.7°F23.7°C 42.8°F6.0°C 32% 5.0 mph NE8.0 kmh NE 6.7 mph10.8 kmh 25.19 in853.0 mb 0.00 in0.0 mm 0.00 in/hr0.0 mm/hr 0.00 in0.0 mm
12:48 AM 74.5°F23.6°C 42.6°F5.9°C 32% 4.0 mph NNE6.4 kmh NNE 5.8 mph9.3 kmh 25.19 in853.0 mb 0.00 in0.0 mm 0.00 in/hr0.0 mm/hr 0.00 in0.0 mm
12:53 AM 75.0°F23.9°C 43.2°F6.2°C 32% 4.0 mph NNE6.4 kmh NNE 5.4 mph8.7 kmh 25.19 in853.0 mb 0.00 in0.0 mm 0.00 in/hr0.0 mm/hr 0.00 in0.0 mm
12:58 AM 75.2°F24.0°C 43.3°F6.3°C 32% 4.0 mph N6.4 kmh N 6.3 mph10.1 kmh 25.19 in853.0 mb 0.00 in0.0 mm 0.00 in/hr0.0 mm/hr 0.00 in0.0 mm
01:03 AM 75.6°F24.2°C 42.8°F6.0°C 31% 4.0 mph N6.4 kmh N 6.9 mph11.1 kmh 25.19 in853.0 mb 0.00 in0.0 mm 0.00 in/hr0.0 mm/hr 0.00 in0.0 mm
01:08 AM 74.7°F23.7°C 42.8°F6.0°C 32% 5.0 mph N8.0 kmh N 6.9 mph11.1 kmh 25.19 in853.0 mb 0.00 in0.0 mm 0.00 in/hr0.0 mm/hr 0.00 in0.0 mm
01:13 AM 75.0°F23.9°C 43.2°F6.2°C 32% 5.0 mph N8.0 kmh N 6.9 mph11.1 kmh 25.19 in853.0 mb 0.00 in0.0 mm 0.00 in/hr0.0 mm/hr 0.00 in0.0 mm
01:18 AM 74.8°F23.8°C 43.0°F6.1°C 32% 5.0 mph N8.0 kmh N 6.3 mph10.1 kmh 25.19 in853.0 mb 0.00 in0.0 mm 0.00 in/hr0.0 mm/hr 0.00 in0.0 mm
01:23 AM 74.5°F23.6°C 43.5°F6.4°C 33% 4.0 mph NNE6.4 kmh NNE 4.9 mph7.9 kmh 25.19 in853.0 mb 0.00 in0.0 mm 0.00 in/hr0.0 mm/hr 0.00 in0.0 mm
01:28 AM 73.8°F23.2°C 44.4°F6.9°C 35% 4.0 mph NNE6.4 kmh NNE 4.9 mph7.9 kmh 25.19 in853.0 mb 0.00 in0.0 mm 0.00 in/hr0.0 mm/hr 0.00 in0.0 mm
01:33 AM 73.8°F23.2°C 44.4°F6.9°C 35% 3.0 mph NNE4.8 kmh NNE 4.9 mph7.9 kmh 25.19 in853.0 mb 0.00 in0.0 mm 0.00 in/hr0.0 mm/hr 0.00 in0.0 mm
01:38 AM 73.9°F23.3°C 43.7°F6.5°C 34% 1.0 mph NNE1.6 kmh NNE 4.0 mph6.4 kmh 25.19 in853.0 mb 0.00 in0.0 mm 0.00 in/hr0.0 mm/hr 0.00 in0.0 mm
01:43 AM 73.8°F23.2°C 43.7°F6.5°C 34% Calm Calm 3.1 mph5.0 kmh 25.19 in853.0 mb 0.00 in0.0 mm 0.00 in/hr0.0 mm/hr 0.00 in0.0 mm
01:48 AM 73.8°F23.2°C 44.4°F6.9°C 35% Calm Calm -- 25.19 in853.0 mb 0.00 in0.0 mm 0.00 in/hr0.0 mm/hr 0.00 in0.0 mm
01:53 AM 73.8°F23.2°C 43.7°F6.5°C 34% Calm Calm 4.9 mph7.9 kmh 25.19 in853.0 mb 0.00 in0.0 mm 0.00 in/hr0.0 mm/hr 0.00 in0.0 mm
01:58 AM 73.2°F22.9°C 44.6°F7.0°C 36% 2.0 mph NE3.2 kmh NE 4.0 mph6.4 kmh 25.19 in853.0 mb 0.00 in0.0 mm 0.00 in/hr0.0 mm/hr 0.00 in0.0 mm
02:03 AM 73.2°F22.9°C 45.3°F7.4°C 37% 2.0 mph NE3.2 kmh NE 4.5 mph7.2 kmh 25.19 in853.0 mb 0.00 in0.0 mm 0.00 in/hr0.0 mm/hr 0.00 in0.0 mm
02:08 AM 72.7°F22.6°C 46.2°F7.9°C 39% 2.0 mph NE3.2 kmh NE 4.5 mph7.2 kmh 25.19 in853.0 mb 0.00 in0.0 mm 0.00 in/hr0.0 mm/hr 0.00 in0.0 mm
02:13 AM 72.7°F22.6°C 45.0°F7.2°C 37% 1.0 mph NE1.6 kmh NE 3.6 mph5.8 kmh 25.19 in853.0 mb 0.00 in0.0 mm 0.00 in/hr0.0 mm/hr 0.00 in0.0 mm
02:18 AM 72.3°F22.4°C 46.0°F7.8°C 39% 1.0 mph NE1.6 kmh NE 4.5 mph7.2 kmh 25.19 in853.0 mb 0.00 in0.0 mm 0.00 in/hr0.0 mm/hr 0.00 in0.0 mm
02:23 AM 72.1°F22.3°C 47.1°F8.4°C 41% 2.0 mph NE3.2 kmh NE 4.0 mph6.4 kmh 25.19 in853.0 mb 0.00 in0.0 mm 0.00 in/hr0.0 mm/hr 0.00 in0.0 mm
02:28 AM 72.0°F22.2°C 46.9°F8.3°C 41% 3.0 mph NE4.8 kmh NE 4.9 mph7.9 kmh 25.19 in853.0 mb 0.00 in0.0 mm 0.00 in/hr0.0 mm/hr 0.00 in0.0 mm
02:33 AM 71.8°F22.1°C 46.8°F8.2°C 41% 2.0 mph NE3.2 kmh NE 4.0 mph6.4 kmh 25.19 in853.0 mb 0.00 in0.0 mm 0.00 in/hr0.0 mm/hr 0.00 in0.0 mm
02:38 AM 71.4°F21.9°C 47.1°F8.4°C 42% 2.0 mph NE3.2 kmh NE 4.5 mph7.2 kmh 25.19 in853.0 mb 0.00 in0.0 mm 0.00 in/hr0.0 mm/hr 0.00 in0.0 mm
02:43 AM 71.1°F21.7°C 47.5°F8.6°C 43% 2.0 mph NE3.2 kmh NE 4.9 mph7.9 kmh 25.19 in853.0 mb 0.00 in0.0 mm 0.00 in/hr0.0 mm/hr 0.00 in0.0 mm
02:48 AM 70.5°F21.4°C 48.2°F9.0°C 45% 2.0 mph NE3.2 kmh NE 5.4 mph8.7 kmh 25.19 in853.0 mb 0.00 in0.0 mm 0.00 in/hr0.0 mm/hr 0.00 in0.0 mm
02:53 AM 70.5°F21.4°C 48.2°F9.0°C 45% 3.0 mph NNE4.8 kmh NNE 5.4 mph8.7 kmh 25.19 in853.0 mb 0.00 in0.0 mm 0.00 in/hr0.0 mm/hr 0.00 in0.0 mm
02:58 AM 70.0°F21.1°C 48.7°F9.3°C 47% 4.0 mph NNE6.4 kmh NNE 6.7 mph10.8 kmh 25.19 in853.0 mb 0.00 in0.0 mm 0.00 in/hr0.0 mm/hr 0.00 in0.0 mm
03:03 AM 69.6°F20.9°C 49.1°F9.5°C 48% 4.0 mph NNE6.4 kmh NNE 5.4 mph8.7 kmh 25.19 in853.0 mb 0.00 in0.0 mm 0.00 in/hr0.0 mm/hr 0.00 in0.0 mm
03:08 AM 71.8°F22.1°C 47.5°F8.6°C 42% 4.0 mph NNE6.4 kmh NNE 9.2 mph14.8 kmh 25.19 in853.0 mb 0.00 in0.0 mm 0.00 in/hr0.0 mm/hr 0.00 in0.0 mm
03:13 AM 72.9°F22.7°C 45.1°F7.3°C 37% 5.0 mph NNE8.0 kmh NNE 8.3 mph13.4 kmh 25.19 in853.0 mb 0.00 in0.0 mm 0.00 in/hr0.0 mm/hr 0.00 in0.0 mm
03:18 AM 72.1°F22.3°C 45.1°F7.3°C 38% 5.0 mph N8.0 kmh N 7.8 mph12.6 kmh 25.19 in853.0 mb 0.00 in0.0 mm 0.00 in/hr0.0 mm/hr 0.00 in0.0 mm
03:23 AM 72.3°F22.4°C 45.3°F7.4°C 38% 5.0 mph NNE8.0 kmh NNE 9.6 mph15.4 kmh 25.19 in853.0 mb 0.00 in0.0 mm 0.00 in/hr0.0 mm/hr 0.00 in0.0 mm
03:28 AM 71.6°F22.0°C 45.3°F7.4°C 39% 4.0 mph NE6.4 kmh NE 7.8 mph12.6 kmh 25.19 in853.0 mb 0.00 in0.0 mm 0.00 in/hr0.0 mm/hr 0.00 in0.0 mm
03:33 AM 71.6°F22.0°C 45.3°F7.4°C 39% 4.0 mph NNE6.4 kmh NNE 5.8 mph9.3 kmh 25.19 in853.0 mb 0.00 in0.0 mm 0.00 in/hr0.0 mm/hr 0.00 in0.0 mm
03:38 AM 71.8°F22.1°C 45.5°F7.5°C 39% 4.0 mph NNE6.4 kmh NNE 6.3 mph10.1 kmh 25.19 in853.0 mb 0.00 in0.0 mm 0.00 in/hr0.0 mm/hr 0.00 in0.0 mm
03:43 AM 71.4°F21.9°C 45.1°F7.3°C 39% 4.0 mph NNE6.4 kmh NNE 6.9 mph11.1 kmh 25.19 in853.0 mb 0.00 in0.0 mm 0.00 in/hr0.0 mm/hr 0.00 in0.0 mm
03:48 AM 71.6°F22.0°C 44.6°F7.0°C 38% 4.0 mph NE6.4 kmh NE 6.7 mph10.8 kmh 25.19 in853.0 mb 0.00 in0.0 mm 0.00 in/hr0.0 mm/hr 0.00 in0.0 mm
03:53 AM 71.6°F22.0°C 44.6°F7.0°C 38% 4.0 mph NNE6.4 kmh NNE 6.7 mph10.8 kmh 25.19 in853.0 mb 0.00 in0.0 mm 0.00 in/hr0.0 mm/hr 0.00 in0.0 mm
03:58 AM 71.1°F21.7°C 45.5°F7.5°C 40% 4.0 mph NNE6.4 kmh NNE 6.3 mph10.1 kmh 25.19 in853.0 mb 0.00 in0.0 mm 0.00 in/hr0.0 mm/hr 0.00 in0.0 mm
04:04 AM 71.6°F22.0°C 45.3°F7.4°C 39% 4.0 mph NNE6.4 kmh NNE 7.4 mph11.9 kmh 25.19 in853.0 mb 0.00 in0.0 mm 0.00 in/hr0.0 mm/hr 0.00 in0.0 mm
04:09 AM 71.1°F21.7°C 45.5°F7.5°C 40% 4.0 mph NNE6.4 kmh NNE 6.7 mph10.8 kmh 25.19 in853.0 mb 0.00 in0.0 mm 0.00 in/hr0.0 mm/hr 0.00 in0.0 mm
04:14 AM 71.1°F21.7°C 45.5°F7.5°C 40% 4.0 mph NE6.4 kmh NE 6.9 mph11.1 kmh 25.19 in853.0 mb 0.00 in0.0 mm 0.00 in/hr0.0 mm/hr 0.00 in0.0 mm
04:19 AM 71.2°F21.8°C 45.0°F7.2°C 39% 3.0 mph NE4.8 kmh NE 5.4 mph8.7 kmh 25.19 in853.0 mb 0.00 in0.0 mm 0.00 in/hr0.0 mm/hr 0.00 in0.0 mm
04:24 AM 71.6°F22.0°C 44.6°F7.0°C 38% 4.0 mph NNE6.4 kmh NNE 6.9 mph11.1 kmh 25.19 in853.0 mb 0.00 in0.0 mm 0.00 in/hr0.0 mm/hr 0.00 in0.0 mm
04:29 AM 71.8°F22.1°C 44.1°F6.7°C 37% 5.0 mph N8.0 kmh N 6.7 mph10.8 kmh 25.19 in853.0 mb 0.00 in0.0 mm 0.00 in/hr0.0 mm/hr 0.00 in0.0 mm
04:34 AM 70.5°F21.4°C 45.7°F7.6°C 41% 4.0 mph NNE6.4 kmh NNE 6.9 mph11.1 kmh 25.19 in853.0 mb 0.00 in0.0 mm 0.00 in/hr0.0 mm/hr 0.00 in0.0 mm
04:39 AM 70.3°F21.3°C 46.2°F7.9°C 42% 4.0 mph NNE6.4 kmh NNE 6.9 mph11.1 kmh 25.19 in853.0 mb 0.00 in0.0 mm 0.00 in/hr0.0 mm/hr 0.00 in0.0 mm
04:44 AM 71.2°F21.8°C 45.7°F7.6°C 40% 5.0 mph NE8.0 kmh NE 8.7 mph14.0 kmh 25.19 in853.0 mb 0.00 in0.0 mm 0.00 in/hr0.0 mm/hr 0.00 in0.0 mm
04:49 AM 70.9°F21.6°C 46.0°F7.8°C 41% 5.0 mph NE8.0 kmh NE 8.7 mph14.0 kmh 25.19 in853.0 mb 0.00 in0.0 mm 0.00 in/hr0.0 mm/hr 0.00 in0.0 mm
04:54 AM 70.3°F21.3°C 46.2°F7.9°C 42% 4.0 mph NNE6.4 kmh NNE 6.9 mph11.1 kmh 25.19 in853.0 mb 0.00 in0.0 mm 0.00 in/hr0.0 mm/hr 0.00 in0.0 mm
04:59 AM 70.5°F21.4°C 46.2°F7.9°C 42% 5.0 mph NNE8.0 kmh NNE 7.8 mph12.6 kmh 25.19 in853.0 mb 0.00 in0.0 mm 0.00 in/hr0.0 mm/hr 0.00 in0.0 mm
05:04 AM 71.1°F21.7°C 46.2°F7.9°C 41% 5.0 mph NNE8.0 kmh NNE 9.6 mph15.4 kmh 25.19 in853.0 mb 0.00 in0.0 mm 0.00 in/hr0.0 mm/hr 0.00 in0.0 mm
05:09 AM 71.1°F21.7°C 45.5°F7.5°C 40% 6.0 mph NNE9.7 kmh NNE 8.3 mph13.4 kmh 25.19 in853.0 mb 0.00 in0.0 mm 0.00 in/hr0.0 mm/hr 0.00 in0.0 mm
05:14 AM 71.2°F21.8°C 45.0°F7.2°C 39% 6.0 mph NNE9.7 kmh NNE 7.8 mph12.6 kmh 25.19 in853.0 mb 0.00 in0.0 mm 0.00 in/hr0.0 mm/hr 0.00 in0.0 mm
05:19 AM 70.7°F21.5°C 45.9°F7.7°C 41% 5.0 mph NNE8.0 kmh NNE 8.3 mph13.4 kmh 25.19 in853.0 mb 0.00 in0.0 mm 0.00 in/hr0.0 mm/hr 0.00 in0.0 mm
05:24 AM 70.2°F21.2°C 46.0°F7.8°C 42% 4.0 mph NNE6.4 kmh NNE 6.3 mph10.1 kmh 25.19 in853.0 mb 0.00 in0.0 mm 0.00 in/hr0.0 mm/hr 0.00 in0.0 mm
05:29 AM 71.2°F21.8°C 45.7°F7.6°C 40% 4.0 mph NE6.4 kmh NE 11.0 mph17.7 kmh 25.19 in853.0 mb 0.00 in0.0 mm 0.00 in/hr0.0 mm/hr 0.00 in0.0 mm
05:34 AM 71.8°F22.1°C 44.8°F7.1°C 38% 6.0 mph NNE9.7 kmh NNE 9.6 mph15.4 kmh 25.19 in853.0 mb 0.00 in0.0 mm 0.00 in/hr0.0 mm/hr 0.00 in0.0 mm
05:39 AM 72.0°F22.2°C 44.2°F6.8°C 37% 6.0 mph NNE9.7 kmh NNE 10.5 mph16.9 kmh 25.19 in853.0 mb 0.00 in0.0 mm 0.00 in/hr0.0 mm/hr 0.00 in0.0 mm
05:44 AM 71.8°F22.1°C 43.3°F6.3°C 36% 6.0 mph NNE9.7 kmh NNE 10.5 mph16.9 kmh 25.22 in854.0 mb 0.00 in0.0 mm 0.00 in/hr0.0 mm/hr 0.00 in0.0 mm
05:49 AM 71.8°F22.1°C 44.1°F6.7°C 37% 6.0 mph NNE9.7 kmh NNE 11.0 mph17.7 kmh 25.22 in854.0 mb 0.00 in0.0 mm 0.00 in/hr0.0 mm/hr 0.00 in0.0 mm
05:54 AM 71.6°F22.0°C 43.9°F6.6°C 37% 6.0 mph NNE9.7 kmh NNE 8.7 mph14.0 kmh 25.22 in854.0 mb 0.00 in0.0 mm 0.00 in/hr0.0 mm/hr 0.00 in0.0 mm
05:59 AM 72.0°F22.2°C 43.5°F6.4°C 36% 6.0 mph NNE9.7 kmh NNE 10.1 mph16.3 kmh 25.22 in854.0 mb 0.00 in0.0 mm 0.00 in/hr0.0 mm/hr 0.00 in0.0 mm
06:04 AM 72.0°F22.2°C 43.5°F6.4°C 36% 6.0 mph NNE9.7 kmh NNE 9.6 mph15.4 kmh 25.22 in854.0 mb 0.00 in0.0 mm 0.00 in/hr0.0 mm/hr 0.00 in0.0 mm
06:09 AM 72.3°F22.4°C 43.2°F6.2°C 35% 6.0 mph NNE9.7 kmh NNE 9.2 mph14.8 kmh 25.22 in854.0 mb 0.00 in0.0 mm 0.00 in/hr0.0 mm/hr 0.00 in0.0 mm
06:14 AM 72.3°F22.4°C 43.2°F6.2°C 35% 6.0 mph NNE9.7 kmh NNE 8.7 mph14.0 kmh 25.22 in854.0 mb 0.00 in0.0 mm 0.00 in/hr0.0 mm/hr 0.00 in0.0 mm
06:19 AM 72.1°F22.3°C 43.0°F6.1°C 35% 5.0 mph NNE8.0 kmh NNE 7.8 mph12.6 kmh 25.22 in854.0 mb 0.00 in0.0 mm 0.00 in/hr0.0 mm/hr 0.00 in0.0 mm
06:24 AM 72.3°F22.4°C 43.2°F6.2°C 35% 5.0 mph NNE8.0 kmh NNE 10.1 mph16.3 kmh 25.22 in854.0 mb 0.00 in0.0 mm 0.00 in/hr0.0 mm/hr 0.00 in0.0 mm
06:29 AM 72.7°F22.6°C 42.6°F5.9°C 34% 6.0 mph NNE9.7 kmh NNE 9.6 mph15.4 kmh 25.22 in854.0 mb 0.00 in0.0 mm 0.00 in/hr0.0 mm/hr 0.00 in0.0 mm
06:34 AM 72.1°F22.3°C 43.0°F6.1°C 35% 7.0 mph NNE11.3 kmh NNE 10.5 mph16.9 kmh 25.22 in854.0 mb 0.00 in0.0 mm 0.00 in/hr0.0 mm/hr 0.00 in0.0 mm
06:39 AM 72.7°F22.6°C 41.9°F5.5°C 33% 7.0 mph NNE11.3 kmh NNE 11.6 mph18.7 kmh 25.22 in854.0 mb 0.00 in0.0 mm 0.00 in/hr0.0 mm/hr 0.00 in0.0 mm
06:44 AM 71.8°F22.1°C 42.6°F5.9°C 35% 6.0 mph NNE9.7 kmh NNE 6.7 mph10.8 kmh 25.22 in854.0 mb 0.00 in0.0 mm 0.00 in/hr0.0 mm/hr 0.00 in0.0 mm
06:49 AM 72.1°F22.3°C 42.3°F5.7°C 34% 5.0 mph NNE8.0 kmh NNE 8.3 mph13.4 kmh 25.22 in854.0 mb 0.00 in0.0 mm 0.00 in/hr0.0 mm/hr 0.00 in0.0 mm
06:54 AM 72.3°F22.4°C 42.4°F5.8°C 34% 5.0 mph NNE8.0 kmh NNE 9.6 mph15.4 kmh 25.22 in854.0 mb 0.00 in0.0 mm 0.00 in/hr0.0 mm/hr 0.00 in0.0 mm
06:59 AM 72.5°F22.5°C 42.4°F5.8°C 34% 5.0 mph N8.0 kmh N 5.8 mph9.3 kmh 25.22 in854.0 mb 0.00 in0.0 mm 0.00 in/hr0.0 mm/hr 0.00 in0.0 mm
07:04 AM 72.5°F22.5°C 41.7°F5.4°C 33% 5.0 mph N8.0 kmh N 9.2 mph14.8 kmh 25.22 in854.0 mb 0.00 in0.0 mm 0.00 in/hr0.0 mm/hr 0.00 in0.0 mm
07:09 AM 72.3°F22.4°C 42.4°F5.8°C 34% 6.0 mph N9.7 kmh N 7.8 mph12.6 kmh 25.22 in854.0 mb 0.00 in0.0 mm 0.00 in/hr0.0 mm/hr 0.00 in0.0 mm
07:14 AM 72.1°F22.3°C 43.0°F6.1°C 35% 5.0 mph N8.0 kmh N 7.4 mph11.9 kmh 25.25 in855.1 mb 0.00 in0.0 mm 0.00 in/hr0.0 mm/hr 0.00 in0.0 mm
07:19 AM 72.7°F22.6°C 42.6°F5.9°C 34% 5.0 mph N8.0 kmh N 6.9 mph11.1 kmh 25.25 in855.1 mb 0.00 in0.0 mm 0.00 in/hr0.0 mm/hr 0.00 in0.0 mm
07:24 AM 72.7°F22.6°C 41.9°F5.5°C 33% 5.0 mph N8.0 kmh N 9.2 mph14.8 kmh 25.25 in855.1 mb 0.00 in0.0 mm 0.00 in/hr0.0 mm/hr 0.00 in0.0 mm
07:29 AM 72.7°F22.6°C 41.9°F5.5°C 33% 5.0 mph N8.0 kmh N 7.8 mph12.6 kmh 25.25 in855.1 mb 0.00 in0.0 mm 0.00 in/hr0.0 mm/hr 0.00 in0.0 mm
07:34 AM 72.0°F22.2°C 42.1°F5.6°C 34% 6.0 mph N9.7 kmh N 10.1 mph16.3 kmh 25.25 in855.1 mb 0.00 in0.0 mm 0.00 in/hr0.0 mm/hr 0.00 in0.0 mm
07:39 AM 72.3°F22.4°C 42.4°F5.8°C 34% 6.0 mph N9.7 kmh N 10.5 mph16.9 kmh 25.25 in855.1 mb 0.00 in0.0 mm 0.00 in/hr0.0 mm/hr 0.00 in0.0 mm
07:44 AM 73.0°F22.8°C 43.0°F6.1°C 34% 6.0 mph N9.7 kmh N 9.6 mph15.4 kmh 25.25 in855.1 mb 0.00 in0.0 mm 0.00 in/hr0.0 mm/hr 0.00 in0.0 mm
07:49 AM 73.8°F23.2°C 42.1°F5.6°C 32% 6.0 mph NNE9.7 kmh NNE 7.8 mph12.6 kmh 25.25 in855.1 mb 0.00 in0.0 mm 0.00 in/hr0.0 mm/hr 0.00 in0.0 mm
07:54 AM 73.9°F23.3°C 42.3°F5.7°C 32% 6.0 mph NNE9.7 kmh NNE 9.6 mph15.4 kmh 25.25 in855.1 mb 0.00 in0.0 mm 0.00 in/hr0.0 mm/hr 0.00 in0.0 mm
07:59 AM 73.9°F23.3°C 42.3°F5.7°C 32% 7.0 mph NNE11.3 kmh NNE 12.1 mph19.5 kmh 25.25 in855.1 mb 0.00 in0.0 mm 0.00 in/hr0.0 mm/hr 0.00 in0.0 mm
08:04 AM 74.1°F23.4°C 42.4°F5.8°C 32% 8.0 mph NNE12.9 kmh NNE 11.2 mph18.0 kmh 25.25 in855.1 mb 0.00 in0.0 mm 0.00 in/hr0.0 mm/hr 0.00 in0.0 mm
08:09 AM 74.5°F23.6°C 41.9°F5.5°C 31% 8.0 mph N12.9 kmh N 12.1 mph19.5 kmh 25.25 in855.1 mb 0.00 in0.0 mm 0.00 in/hr0.0 mm/hr 0.00 in0.0 mm
08:14 AM 74.8°F23.8°C 42.1°F5.6°C 31% 9.0 mph N14.5 kmh N 11.2 mph18.0 kmh 25.25 in855.1 mb 0.00 in0.0 mm 0.00 in/hr0.0 mm/hr 0.00 in0.0 mm
08:19 AM 74.7°F23.7°C 41.2°F5.1°C 30% 9.0 mph N14.5 kmh N 12.1 mph19.5 kmh 25.25 in855.1 mb 0.00 in0.0 mm 0.00 in/hr0.0 mm/hr 0.00 in0.0 mm
08:24 AM 74.7°F23.7°C 42.1°F5.6°C 31% 8.0 mph N12.9 kmh N 12.1 mph19.5 kmh 25.25 in855.1 mb 0.00 in0.0 mm 0.00 in/hr0.0 mm/hr 0.00 in0.0 mm
08:29 AM 74.5°F23.6°C 41.9°F5.5°C 31% 9.0 mph N14.5 kmh N 13.0 mph20.9 kmh 25.25 in855.1 mb 0.00 in0.0 mm 0.00 in/hr0.0 mm/hr 0.00 in0.0 mm
08:34 AM 74.7°F23.7°C 42.1°F5.6°C 31% 9.0 mph N14.5 kmh N 12.1 mph19.5 kmh 25.25 in855.1 mb 0.00 in0.0 mm 0.00 in/hr0.0 mm/hr 0.00 in0.0 mm
08:39 AM 74.8°F23.8°C 42.1°F5.6°C 31% 8.0 mph N12.9 kmh N 10.5 mph16.9 kmh 25.25 in855.1 mb 0.00 in0.0 mm 0.00 in/hr0.0 mm/hr 0.00 in0.0 mm
08:44 AM 75.2°F24.0°C 42.4°F5.8°C 31% 6.0 mph NNW9.7 kmh NNW 9.6 mph15.4 kmh 25.25 in855.1 mb 0.00 in0.0 mm 0.00 in/hr0.0 mm/hr 0.00 in0.0 mm
08:49 AM 75.2°F24.0°C 42.4°F5.8°C 31% 6.0 mph NNW9.7 kmh NNW 9.2 mph14.8 kmh 25.25 in855.1 mb 0.00 in0.0 mm 0.00 in/hr0.0 mm/hr 0.00 in0.0 mm
08:54 AM 74.8°F23.8°C 42.1°F5.6°C 31% 7.0 mph NNW11.3 kmh NNW 11.0 mph17.7 kmh 25.25 in855.1 mb 0.00 in0.0 mm 0.00 in/hr0.0 mm/hr 0.00 in0.0 mm
08:59 AM 75.4°F24.1°C 42.6°F5.9°C 31% 7.0 mph NNW11.3 kmh NNW 10.5 mph16.9 kmh 25.25 in855.1 mb 0.00 in0.0 mm 0.00 in/hr0.0 mm/hr 0.00 in0.0 mm
09:04 AM 76.3°F24.6°C 42.6°F5.9°C 30% 6.0 mph NNW9.7 kmh NNW 9.6 mph15.4 kmh 25.25 in855.1 mb 0.00 in0.0 mm 0.00 in/hr0.0 mm/hr 0.00 in0.0 mm
09:09 AM 76.3°F24.6°C 42.6°F5.9°C 30% 6.0 mph N9.7 kmh N 9.2 mph14.8 kmh 25.25 in855.1 mb 0.00 in0.0 mm 0.00 in/hr0.0 mm/hr 0.00 in0.0 mm
09:14 AM 76.8°F24.9°C 43.0°F6.1°C 30% 6.0 mph NNW9.7 kmh NNW 8.7 mph14.0 kmh 25.25 in855.1 mb 0.00 in0.0 mm 0.00 in/hr0.0 mm/hr 0.00 in0.0 mm
09:19 AM 76.5°F24.7°C 42.6°F5.9°C 30% 6.0 mph NW9.7 kmh NW 8.3 mph13.4 kmh 25.25 in855.1 mb 0.00 in0.0 mm 0.00 in/hr0.0 mm/hr 0.00 in0.0 mm
09:24 AM 77.2°F25.1°C 43.3°F6.3°C 30% 6.0 mph NW9.7 kmh NW 10.5 mph16.9 kmh 25.25 in855.1 mb 0.00 in0.0 mm 0.00 in/hr0.0 mm/hr 0.00 in0.0 mm
09:29 AM 76.1°F24.5°C 43.3°F6.3°C 31% 6.0 mph NNW9.7 kmh NNW 8.7 mph14.0 kmh 25.25 in855.1 mb 0.00 in0.0 mm 0.00 in/hr0.0 mm/hr 0.00 in0.0 mm
09:34 AM 77.2°F25.1°C 44.2°F6.8°C 31% 6.0 mph NNW9.7 kmh NNW 8.3 mph13.4 kmh 25.25 in855.1 mb 0.00 in0.0 mm 0.00 in/hr0.0 mm/hr 0.00 in0.0 mm
09:39 AM 77.7°F25.4°C 44.6°F7.0°C 31% 6.0 mph NW9.7 kmh NW 8.7 mph14.0 kmh 25.25 in855.1 mb 0.00 in0.0 mm 0.00 in/hr0.0 mm/hr 0.00 in0.0 mm
09:44 AM 78.1°F25.6°C 43.2°F6.2°C 29% 5.0 mph NW8.0 kmh NW 7.8 mph12.6 kmh 25.25 in855.1 mb 0.00 in0.0 mm 0.00 in/hr0.0 mm/hr 0.00 in0.0 mm
09:49 AM 78.3°F25.7°C 44.2°F6.8°C 30% 4.0 mph NW6.4 kmh NW 9.2 mph14.8 kmh 25.25 in855.1 mb 0.00 in0.0 mm 0.00 in/hr0.0 mm/hr 0.00 in0.0 mm
09:54 AM 78.1°F25.6°C 41.4°F5.2°C 27% 4.0 mph W6.4 kmh W 7.8 mph12.6 kmh 25.25 in855.1 mb 0.00 in0.0 mm 0.00 in/hr0.0 mm/hr 0.00 in0.0 mm
09:59 AM 79.0°F26.1°C 42.1°F5.6°C 27% 5.0 mph NW8.0 kmh NW 6.9 mph11.1 kmh 25.25 in855.1 mb 0.00 in0.0 mm 0.00 in/hr0.0 mm/hr 0.00 in0.0 mm
10:04 AM 78.6°F25.9°C 38.8°F3.8°C 24% 4.0 mph NW6.4 kmh NW 5.8 mph9.3 kmh 25.25 in855.1 mb 0.00 in0.0 mm 0.00 in/hr0.0 mm/hr 0.00 in0.0 mm
10:09 AM 79.3°F26.3°C 40.5°F4.7°C 25% 4.0 mph NNW6.4 kmh NNW 6.7 mph10.8 kmh 25.25 in855.1 mb 0.00 in0.0 mm 0.00 in/hr0.0 mm/hr 0.00 in0.0 mm
10:14 AM 78.6°F25.9°C 38.8°F3.8°C 24% 4.0 mph NNW6.4 kmh NNW 6.9 mph11.1 kmh 25.25 in855.1 mb 0.00 in0.0 mm 0.00 in/hr0.0 mm/hr 0.00 in0.0 mm
10:19 AM 79.5°F26.4°C 40.6°F4.8°C 25% 5.0 mph NNW8.0 kmh NNW 8.3 mph13.4 kmh 25.25 in855.1 mb 0.00 in0.0 mm 0.00 in/hr0.0 mm/hr 0.00 in0.0 mm
10:24 AM 79.9°F26.6°C 39.9°F4.4°C 24% 5.0 mph NNW8.0 kmh NNW 6.7 mph10.8 kmh 25.25 in855.1 mb 0.00 in0.0 mm 0.00 in/hr0.0 mm/hr 0.00 in0.0 mm
10:29 AM 80.8°F27.1°C 39.6°F4.2°C 23% 4.0 mph NNW6.4 kmh NNW 6.7 mph10.8 kmh 25.25 in855.1 mb 0.00 in0.0 mm 0.00 in/hr0.0 mm/hr 0.00 in0.0 mm
10:34 AM 80.8°F27.1°C 39.6°F4.2°C 23% 4.0 mph NNW6.4 kmh NNW 8.7 mph14.0 kmh 25.25 in855.1 mb 0.00 in0.0 mm 0.00 in/hr0.0 mm/hr 0.00 in0.0 mm
10:39 AM 80.4°F26.9°C 38.1°F3.4°C 22% 5.0 mph NW8.0 kmh NW 7.8 mph12.6 kmh 25.25 in855.1 mb 0.00 in0.0 mm 0.00 in/hr0.0 mm/hr 0.00 in0.0 mm
10:44 AM 81.5°F27.5°C 41.2°F5.1°C 24% 4.0 mph NNW6.4 kmh NNW 7.4 mph11.9 kmh 25.25 in855.1 mb 0.00 in0.0 mm 0.00 in/hr0.0 mm/hr 0.00 in0.0 mm
10:49 AM 82.4°F28.0°C 39.7°F4.3°C 22% 4.0 mph NNW6.4 kmh NNW 7.4 mph11.9 kmh 25.25 in855.1 mb 0.00 in0.0 mm 0.00 in/hr0.0 mm/hr 0.00 in0.0 mm
10:54 AM 82.6°F28.1°C 38.7°F3.7°C 21% 4.0 mph NW6.4 kmh NW 6.7 mph10.8 kmh 25.25 in855.1 mb 0.00 in0.0 mm 0.00 in/hr0.0 mm/hr 0.00 in0.0 mm
10:59 AM 82.9°F28.3°C 39.0°F3.9°C 21% 4.0 mph NW6.4 kmh NW 7.8 mph12.6 kmh 25.25 in855.1 mb 0.00 in0.0 mm 0.00 in/hr0.0 mm/hr 0.00 in0.0 mm
11:04 AM 83.5°F28.6°C 38.1°F3.4°C 20% 4.0 mph NW6.4 kmh NW 6.3 mph10.1 kmh 25.25 in855.1 mb 0.00 in0.0 mm 0.00 in/hr0.0 mm/hr 0.00 in0.0 mm
11:10 AM 84.4°F29.1°C 38.8°F3.8°C 20% 4.0 mph WNW6.4 kmh WNW 6.3 mph10.1 kmh 25.25 in855.1 mb 0.00 in0.0 mm 0.00 in/hr0.0 mm/hr 0.00 in0.0 mm
11:15 AM 83.5°F28.6°C 36.9°F2.7°C 19% 4.0 mph W6.4 kmh W 7.8 mph12.6 kmh 25.25 in855.1 mb 0.00 in0.0 mm 0.00 in/hr0.0 mm/hr 0.00 in0.0 mm
11:20 AM 82.9°F28.3°C 37.8°F3.2°C 20% 4.0 mph NW6.4 kmh NW 6.3 mph10.1 kmh 25.25 in855.1 mb 0.00 in0.0 mm 0.00 in/hr0.0 mm/hr 0.00 in0.0 mm
11:25 AM 83.5°F28.6°C 36.9°F2.7°C 19% 4.0 mph NNW6.4 kmh NNW 6.3 mph10.1 kmh 25.25 in855.1 mb 0.00 in0.0 mm 0.00 in/hr0.0 mm/hr 0.00 in0.0 mm
11:30 AM 85.3°F29.6°C 38.3°F3.5°C 19% 3.0 mph NNW4.8 kmh NNW 6.9 mph11.1 kmh 25.25 in855.1 mb 0.00 in0.0 mm 0.00 in/hr0.0 mm/hr 0.00 in0.0 mm
11:35 AM 84.6°F29.2°C 37.8°F3.2°C 19% 2.0 mph NW3.2 kmh NW 6.7 mph10.8 kmh 25.25 in855.1 mb 0.00 in0.0 mm 0.00 in/hr0.0 mm/hr 0.00 in0.0 mm
11:40 AM 84.4°F29.1°C 37.6°F3.1°C 19% 3.0 mph NW4.8 kmh NW 6.9 mph11.1 kmh 25.25 in855.1 mb 0.00 in0.0 mm 0.00 in/hr0.0 mm/hr 0.00 in0.0 mm
11:45 AM 85.5°F29.7°C 38.5°F3.6°C 19% 4.0 mph NW6.4 kmh NW 6.3 mph10.1 kmh 25.25 in855.1 mb 0.00 in0.0 mm 0.00 in/hr0.0 mm/hr 0.00 in0.0 mm
11:50 AM 85.8°F29.9°C 38.8°F3.8°C 19% 3.0 mph WNW4.8 kmh WNW 6.3 mph10.1 kmh 25.25 in855.1 mb 0.00 in0.0 mm 0.00 in/hr0.0 mm/hr 0.00 in0.0 mm
11:55 AM 85.3°F29.6°C 37.0°F2.8°C 18% 2.0 mph NW3.2 kmh NW 6.3 mph10.1 kmh 25.25 in855.1 mb 0.00 in0.0 mm 0.00 in/hr0.0 mm/hr 0.00 in0.0 mm
12:00 PM 85.6°F29.8°C 34.3°F1.3°C 16% 3.0 mph NW4.8 kmh NW 5.8 mph9.3 kmh 25.25 in855.1 mb 0.00 in0.0 mm 0.00 in/hr0.0 mm/hr 0.00 in0.0 mm
12:05 PM 86.5°F30.3°C 29.8°F-1.2°C 13% 3.0 mph WNW4.8 kmh WNW 5.8 mph9.3 kmh 25.25 in855.1 mb 0.00 in0.0 mm 0.00 in/hr0.0 mm/hr 0.00 in0.0 mm
12:10 PM 86.4°F30.2°C 25.7°F-3.5°C 11% 3.0 mph NW4.8 kmh NW 6.3 mph10.1 kmh 25.25 in855.1 mb 0.00 in0.0 mm 0.00 in/hr0.0 mm/hr 0.00 in0.0 mm
12:15 PM 86.9°F30.5°C -5537.2°C - 4.0 mph NNE6.4 kmh NNE 5.8 mph9.3 kmh 25.22 in854.0 mb 0.00 in0.0 mm 0.00 in/hr0.0 mm/hr 0.00 in0.0 mm
12:20 PM 87.3°F30.7°C -5537.2°C - 4.0 mph NE6.4 kmh NE 6.9 mph11.1 kmh 25.22 in854.0 mb 0.00 in0.0 mm 0.00 in/hr0.0 mm/hr 0.00 in0.0 mm
12:25 PM 87.3°F30.7°C -5537.2°C - 4.0 mph NE6.4 kmh NE 9.6 mph15.4 kmh 25.22 in854.0 mb 0.00 in0.0 mm 0.00 in/hr0.0 mm/hr 0.00 in0.0 mm
12:30 PM 88.0°F31.1°C -5537.2°C - 4.0 mph E6.4 kmh E 5.8 mph9.3 kmh 25.22 in854.0 mb 0.00 in0.0 mm 0.00 in/hr0.0 mm/hr 0.00 in0.0 mm
12:35 PM 88.5°F31.4°C -5537.2°C - 3.0 mph ESE4.8 kmh ESE 4.9 mph7.9 kmh 25.22 in854.0 mb 0.00 in0.0 mm 0.00 in/hr0.0 mm/hr 0.00 in0.0 mm
12:40 PM 88.9°F31.6°C -5537.2°C - 3.0 mph SE4.8 kmh SE 6.9 mph11.1 kmh 25.22 in854.0 mb 0.00 in0.0 mm 0.00 in/hr0.0 mm/hr 0.00 in0.0 mm
12:45 PM 87.8°F31.0°C -5537.2°C - 3.0 mph SW4.8 kmh SW 7.8 mph12.6 kmh 25.22 in854.0 mb 0.00 in0.0 mm 0.00 in/hr0.0 mm/hr 0.00 in0.0 mm
12:50 PM 87.6°F30.9°C -5537.2°C - 4.0 mph SW6.4 kmh SW 8.7 mph14.0 kmh 25.22 in854.0 mb 0.00 in0.0 mm 0.00 in/hr0.0 mm/hr 0.00 in0.0 mm
12:55 PM 87.1°F30.6°C -5537.2°C - 4.0 mph SSW6.4 kmh SSW 9.2 mph14.8 kmh 25.22 in854.0 mb 0.00 in0.0 mm 0.00 in/hr0.0 mm/hr 0.00 in0.0 mm
01:00 PM 87.1°F30.6°C -5537.2°C - 4.0 mph S6.4 kmh S 6.7 mph10.8 kmh 25.22 in854.0 mb 0.00 in0.0 mm 0.00 in/hr0.0 mm/hr 0.00 in0.0 mm
01:05 PM 87.4°F30.8°C -5537.2°C - 4.0 mph S6.4 kmh S 8.3 mph13.4 kmh 25.22 in854.0 mb 0.00 in0.0 mm 0.00 in/hr0.0 mm/hr 0.00 in0.0 mm
01:10 PM 88.0°F31.1°C -5537.2°C - 5.0 mph S8.0 kmh S 8.7 mph14.0 kmh 25.22 in854.0 mb 0.00 in0.0 mm 0.00 in/hr0.0 mm/hr 0.00 in0.0 mm
01:15 PM 88.5°F31.4°C -5537.2°C - 4.0 mph S6.4 kmh S 6.9 mph11.1 kmh 25.22 in854.0 mb 0.00 in0.0 mm 0.00 in/hr0.0 mm/hr 0.00 in0.0 mm
01:20 PM 89.2°F31.8°C -5537.2°C - 3.0 mph S4.8 kmh S 5.8 mph9.3 kmh 25.22 in854.0 mb 0.00 in0.0 mm 0.00 in/hr0.0 mm/hr 0.00 in0.0 mm
01:25 PM 89.2°F31.8°C -5537.2°C - 2.0 mph SE3.2 kmh SE 5.4 mph8.7 kmh 25.22 in854.0 mb 0.00 in0.0 mm 0.00 in/hr0.0 mm/hr 0.00 in0.0 mm
01:30 PM 90.7°F32.6°C -5537.2°C - 3.0 mph E4.8 kmh E 6.9 mph11.1 kmh 25.22 in854.0 mb 0.00 in0.0 mm 0.00 in/hr0.0 mm/hr 0.00 in0.0 mm
01:42 PM 90.3°F32.4°C -5537.2°C - 5.0 mph SE8.0 kmh SE 8.3 mph13.4 kmh 25.22 in854.0 mb 0.00 in0.0 mm 0.00 in/hr0.0 mm/hr 0.00 in0.0 mm
01:47 PM 89.6°F32.0°C -5537.2°C - 5.0 mph SSE8.0 kmh SSE 7.4 mph11.9 kmh 25.19 in853.0 mb 0.00 in0.0 mm 0.00 in/hr0.0 mm/hr 0.00 in0.0 mm
01:49 PM 89.6°F32.0°C -5537.2°C - 5.0 mph SSE8.0 kmh SSE 9.2 mph14.8 kmh 25.19 in853.0 mb 0.00 in0.0 mm 0.00 in/hr0.0 mm/hr 0.00 in0.0 mm
01:54 PM 89.4°F31.9°C -5537.2°C - 6.0 mph S9.7 kmh S 9.6 mph15.4 kmh 25.19 in853.0 mb 0.00 in0.0 mm 0.00 in/hr0.0 mm/hr 0.00 in0.0 mm
01:59 PM 89.4°F31.9°C -5537.2°C - 6.0 mph S9.7 kmh S 8.7 mph14.0 kmh 25.19 in853.0 mb 0.00 in0.0 mm 0.00 in/hr0.0 mm/hr 0.00 in0.0 mm
02:04 PM 89.6°F32.0°C -5537.2°C - 5.0 mph S8.0 kmh S 7.4 mph11.9 kmh 25.19 in853.0 mb 0.00 in0.0 mm 0.00 in/hr0.0 mm/hr 0.00 in0.0 mm
02:09 PM 89.6°F32.0°C -5537.2°C - 4.0 mph SSE6.4 kmh SSE 7.4 mph11.9 kmh 25.19 in853.0 mb 0.00 in0.0 mm 0.00 in/hr0.0 mm/hr 0.00 in0.0 mm
02:14 PM 89.8°F32.1°C -5537.2°C - 5.0 mph SE8.0 kmh SE 7.8 mph12.6 kmh 25.19 in853.0 mb 0.00 in0.0 mm 0.00 in/hr0.0 mm/hr 0.00 in0.0 mm
02:19 PM 90.3°F32.4°C -5537.2°C - 5.0 mph SE8.0 kmh SE 6.3 mph10.1 kmh 25.19 in853.0 mb 0.00 in0.0 mm 0.00 in/hr0.0 mm/hr 0.00 in0.0 mm
02:24 PM 90.7°F32.6°C -5537.2°C - 4.0 mph SSE6.4 kmh SSE 6.3 mph10.1 kmh 25.19 in853.0 mb 0.00 in0.0 mm 0.00 in/hr0.0 mm/hr 0.00 in0.0 mm
02:29 PM 90.7°F32.6°C -5537.2°C - 3.0 mph S4.8 kmh S 6.9 mph11.1 kmh 25.19 in853.0 mb 0.00 in0.0 mm 0.00 in/hr0.0 mm/hr 0.00 in0.0 mm
02:34 PM 90.7°F32.6°C -5537.2°C - 4.0 mph S6.4 kmh S 6.9 mph11.1 kmh 25.19 in853.0 mb 0.00 in0.0 mm 0.00 in/hr0.0 mm/hr 0.00 in0.0 mm
02:39 PM 90.5°F32.5°C -5537.2°C - 4.0 mph S6.4 kmh S 6.3 mph10.1 kmh 25.19 in853.0 mb 0.00 in0.0 mm 0.00 in/hr0.0 mm/hr 0.00 in0.0 mm
02:44 PM 91.6°F33.1°C -5537.2°C - 3.0 mph S4.8 kmh S 6.3 mph10.1 kmh 25.16 in852.0 mb 0.00 in0.0 mm 0.00 in/hr0.0 mm/hr 0.00 in0.0 mm
02:49 PM 92.7°F33.7°C -5537.2°C - 3.0 mph SE4.8 kmh SE 6.3 mph10.1 kmh 25.16 in852.0 mb 0.00 in0.0 mm 0.00 in/hr0.0 mm/hr 0.00 in0.0 mm
02:54 PM 93.2°F34.0°C -5537.2°C - 3.0 mph SE4.8 kmh SE 9.6 mph15.4 kmh 25.16 in852.0 mb 0.00 in0.0 mm 0.00 in/hr0.0 mm/hr 0.00 in0.0 mm
02:59 PM 91.9°F33.3°C -5537.2°C - 5.0 mph S8.0 kmh S 10.5 mph16.9 kmh 25.16 in852.0 mb 0.00 in0.0 mm 0.00 in/hr0.0 mm/hr 0.00 in0.0 mm
03:04 PM 91.6°F33.1°C -5537.2°C - 5.0 mph SSW8.0 kmh SSW 7.8 mph12.6 kmh 25.16 in852.0 mb 0.00 in0.0 mm 0.00 in/hr0.0 mm/hr 0.00 in0.0 mm
03:09 PM 93.0°F33.9°C -5537.2°C - 3.0 mph SSE4.8 kmh SSE 4.5 mph7.2 kmh 25.16 in852.0 mb 0.00 in0.0 mm 0.00 in/hr0.0 mm/hr 0.00 in0.0 mm
03:14 PM 92.8°F33.8°C -5537.2°C - 3.0 mph SSE4.8 kmh SSE 8.3 mph13.4 kmh 25.16 in852.0 mb 0.00 in0.0 mm 0.00 in/hr0.0 mm/hr 0.00 in0.0 mm
03:19 PM 93.0°F33.9°C -5537.2°C - 4.0 mph S6.4 kmh S 8.3 mph13.4 kmh 25.16 in852.0 mb 0.00 in0.0 mm 0.00 in/hr0.0 mm/hr 0.00 in0.0 mm
03:24 PM 93.6°F34.2°C -5537.2°C - 4.0 mph S6.4 kmh S 6.9 mph11.1 kmh 25.16 in852.0 mb 0.00 in0.0 mm 0.00 in/hr0.0 mm/hr 0.00 in0.0 mm
03:29 PM 93.4°F34.1°C -5537.2°C - 4.0 mph S6.4 kmh S 9.2 mph14.8 kmh 25.16 in852.0 mb 0.00 in0.0 mm 0.00 in/hr0.0 mm/hr 0.00 in0.0 mm
03:34 PM 93.9°F34.4°C -5537.2°C - 5.0 mph SSE8.0 kmh SSE 8.7 mph14.0 kmh 25.16 in852.0 mb 0.00 in0.0 mm 0.00 in/hr0.0 mm/hr 0.00 in0.0 mm
03:39 PM 94.5°F34.7°C -5537.2°C - 4.0 mph SSE6.4 kmh SSE 6.3 mph10.1 kmh 25.16 in852.0 mb 0.00 in0.0 mm 0.00 in/hr0.0 mm/hr 0.00 in0.0 mm
03:44 PM 94.5°F34.7°C -5537.2°C - 3.0 mph S4.8 kmh S 6.7 mph10.8 kmh 25.16 in852.0 mb 0.00 in0.0 mm 0.00 in/hr0.0 mm/hr 0.00 in0.0 mm
03:49 PM 95.0°F35.0°C -5537.2°C - 2.0 mph S3.2 kmh S 4.5 mph7.2 kmh 25.16 in852.0 mb 0.00 in0.0 mm 0.00 in/hr0.0 mm/hr 0.00 in0.0 mm
03:54 PM 94.6°F34.8°C -5537.2°C - 2.0 mph SSW3.2 kmh SSW 6.7 mph10.8 kmh 25.16 in852.0 mb 0.00 in0.0 mm 0.00 in/hr0.0 mm/hr 0.00 in0.0 mm
03:59 PM 94.3°F34.6°C -5537.2°C - 4.0 mph SSW6.4 kmh SSW 9.6 mph15.4 kmh 25.16 in852.0 mb 0.00 in0.0 mm 0.00 in/hr0.0 mm/hr 0.00 in0.0 mm
04:04 PM 94.3°F34.6°C -5537.2°C - 5.0 mph S8.0 kmh S 8.7 mph14.0 kmh 25.16 in852.0 mb 0.00 in0.0 mm 0.00 in/hr0.0 mm/hr 0.00 in0.0 mm
04:09 PM 94.8°F34.9°C -5537.2°C - 4.0 mph SSE6.4 kmh SSE 8.7 mph14.0 kmh 25.16 in852.0 mb 0.00 in0.0 mm 0.00 in/hr0.0 mm/hr 0.00 in0.0 mm
04:15 PM 95.5°F35.3°C -5537.2°C - 4.0 mph SE6.4 kmh SE 8.7 mph14.0 kmh 25.13 in851.0 mb 0.00 in0.0 mm 0.00 in/hr0.0 mm/hr 0.00 in0.0 mm
04:20 PM 95.0°F35.0°C -5537.2°C - 5.0 mph S8.0 kmh S 7.8 mph12.6 kmh 25.13 in851.0 mb 0.00 in0.0 mm 0.00 in/hr0.0 mm/hr 0.00 in0.0 mm
04:25 PM 95.4°F35.2°C -5537.2°C - 4.0 mph S6.4 kmh S 7.8 mph12.6 kmh 25.13 in851.0 mb 0.00 in0.0 mm 0.00 in/hr0.0 mm/hr 0.00 in0.0 mm
04:30 PM 94.8°F34.9°C -5537.2°C - 3.0 mph SSE4.8 kmh SSE 7.4 mph11.9 kmh 25.13 in851.0 mb 0.00 in0.0 mm 0.00 in/hr0.0 mm/hr 0.00 in0.0 mm
04:35 PM -5537.2°C -5537.2°C - 4.0 mph SE6.4 kmh SE 8.7 mph14.0 kmh 25.13 in851.0 mb 0.00 in0.0 mm 0.00 in/hr0.0 mm/hr 0.00 in0.0 mm
04:40 PM 95.2°F35.1°C -5537.2°C - 5.0 mph SSE8.0 kmh SSE 9.2 mph14.8 kmh 25.13 in851.0 mb 0.00 in0.0 mm 0.00 in/hr0.0 mm/hr 0.00 in0.0 mm
04:45 PM -5537.2°C -5537.2°C - 5.0 mph S8.0 kmh S 6.9 mph11.1 kmh 25.13 in851.0 mb 0.00 in0.0 mm 0.00 in/hr0.0 mm/hr 0.00 in0.0 mm
04:50 PM 21.2°F-6.0°C -5537.2°C - 4.0 mph SSE6.4 kmh SSE 7.8 mph12.6 kmh 25.13 in851.0 mb 0.00 in0.0 mm 0.00 in/hr0.0 mm/hr 0.00 in0.0 mm
04:55 PM 96.3°F35.7°C -5537.2°C - 4.0 mph SSE6.4 kmh SSE 7.4 mph11.9 kmh 25.13 in851.0 mb 0.00 in0.0 mm 0.00 in/hr0.0 mm/hr 0.00 in0.0 mm
05:00 PM 95.9°F35.5°C -5537.2°C - 4.0 mph S6.4 kmh S 10.5 mph16.9 kmh 25.13 in851.0 mb 0.00 in0.0 mm 0.00 in/hr0.0 mm/hr 0.00 in0.0 mm
05:05 PM 95.5°F35.3°C -5537.2°C - 3.0 mph S4.8 kmh S 5.8 mph9.3 kmh 25.13 in851.0 mb 0.00 in0.0 mm 0.00 in/hr0.0 mm/hr 0.00 in0.0 mm
05:10 PM 95.9°F35.5°C -5537.2°C - 3.0 mph S4.8 kmh S 6.7 mph10.8 kmh 25.13 in851.0 mb 0.00 in0.0 mm 0.00 in/hr0.0 mm/hr 0.00 in0.0 mm
05:15 PM 96.1°F35.6°C -5537.2°C - 8.0 mph NE12.9 kmh NE 22.4 mph36.0 kmh 25.10 in850.0 mb 0.00 in0.0 mm 0.00 in/hr0.0 mm/hr 0.00 in0.0 mm
05:20 PM 95.5°F35.3°C -5537.2°C - 10.0 mph N16.1 kmh N 17.7 mph28.5 kmh 25.10 in850.0 mb 0.00 in0.0 mm 0.00 in/hr0.0 mm/hr 0.00 in0.0 mm
05:25 PM 95.0°F35.0°C -5537.2°C - 6.0 mph NNW9.7 kmh NNW 9.2 mph14.8 kmh 25.10 in850.0 mb 0.00 in0.0 mm 0.00 in/hr0.0 mm/hr 0.00 in0.0 mm
05:30 PM 94.3°F34.6°C -5537.2°C - 6.0 mph NW9.7 kmh NW 12.1 mph19.5 kmh 25.13 in851.0 mb 0.00 in0.0 mm 0.00 in/hr0.0 mm/hr 0.00 in0.0 mm
05:35 PM 93.6°F34.2°C -5537.2°C - 7.0 mph NW11.3 kmh NW 13.0 mph20.9 kmh 25.13 in851.0 mb 0.00 in0.0 mm 0.00 in/hr0.0 mm/hr 0.00 in0.0 mm
05:40 PM 92.5°F33.6°C -5537.2°C - 8.0 mph NNW12.9 kmh NNW 17.2 mph27.7 kmh 25.13 in851.0 mb 0.00 in0.0 mm 0.00 in/hr0.0 mm/hr 0.00 in0.0 mm
05:45 PM 91.4°F33.0°C -5537.2°C - 11.0 mph NNW17.7 kmh NNW 23.3 mph37.5 kmh 25.13 in851.0 mb 0.00 in0.0 mm 0.00 in/hr0.0 mm/hr 0.00 in0.0 mm
05:50 PM 90.5°F32.5°C -5537.2°C - 17.0 mph N27.4 kmh N 29.1 mph46.8 kmh 25.13 in851.0 mb 0.00 in0.0 mm 0.00 in/hr0.0 mm/hr 0.00 in0.0 mm
05:55 PM 90.9°F32.7°C -5537.2°C - 17.0 mph N27.4 kmh N 22.8 mph36.7 kmh 25.13 in851.0 mb 0.00 in0.0 mm 0.00 in/hr0.0 mm/hr 0.00 in0.0 mm
06:00 PM 91.0°F32.8°C -5537.2°C - 14.0 mph N22.5 kmh N 20.1 mph32.3 kmh 25.13 in851.0 mb 0.00 in0.0 mm 0.00 in/hr0.0 mm/hr 0.00 in0.0 mm
06:05 PM 90.9°F32.7°C -5537.2°C - 14.0 mph N22.5 kmh N 21.5 mph34.6 kmh 25.13 in851.0 mb 0.00 in0.0 mm 0.00 in/hr0.0 mm/hr 0.00 in0.0 mm
06:10 PM 90.9°F32.7°C -5537.2°C - 14.0 mph NNE22.5 kmh NNE 22.8 mph36.7 kmh 25.13 in851.0 mb 0.00 in0.0 mm 0.00 in/hr0.0 mm/hr 0.00 in0.0 mm
06:15 PM 91.4°F33.0°C -5537.2°C - 14.0 mph NNE22.5 kmh NNE 18.6 mph29.9 kmh 25.13 in851.0 mb 0.00 in0.0 mm 0.00 in/hr0.0 mm/hr 0.00 in0.0 mm
06:20 PM 91.4°F33.0°C -5537.2°C - 14.0 mph NNE22.5 kmh NNE 24.8 mph39.9 kmh 25.13 in851.0 mb 0.00 in0.0 mm 0.00 in/hr0.0 mm/hr 0.00 in0.0 mm
06:25 PM 91.6°F33.1°C -5537.2°C - 13.0 mph NNE20.9 kmh NNE 22.4 mph36.0 kmh 25.13 in851.0 mb 0.00 in0.0 mm 0.00 in/hr0.0 mm/hr 0.00 in0.0 mm
06:30 PM 91.0°F32.8°C -5537.2°C - 11.0 mph NE17.7 kmh NE 20.6 mph33.2 kmh 25.13 in851.0 mb 0.00 in0.0 mm 0.00 in/hr0.0 mm/hr 0.00 in0.0 mm
06:35 PM 91.2°F32.9°C -5537.2°C - 9.0 mph NE14.5 kmh NE 14.3 mph23.0 kmh 25.13 in851.0 mb 0.00 in0.0 mm 0.00 in/hr0.0 mm/hr 0.00 in0.0 mm
06:40 PM 90.9°F32.7°C -5537.2°C - 9.0 mph NNE14.5 kmh NNE 16.8 mph27.0 kmh 25.13 in851.0 mb 0.00 in0.0 mm 0.00 in/hr0.0 mm/hr 0.00 in0.0 mm
06:45 PM 90.5°F32.5°C -5537.2°C - 10.0 mph N16.1 kmh N 19.5 mph31.4 kmh 25.13 in851.0 mb 0.00 in0.0 mm 0.00 in/hr0.0 mm/hr 0.00 in0.0 mm
06:50 PM 89.6°F32.0°C -5537.2°C - 13.0 mph N20.9 kmh N 21.9 mph35.2 kmh 25.13 in851.0 mb 0.00 in0.0 mm 0.00 in/hr0.0 mm/hr 0.00 in0.0 mm
06:55 PM 89.2°F31.8°C -5537.2°C - 15.0 mph N24.1 kmh N 21.9 mph35.2 kmh 25.13 in851.0 mb 0.00 in0.0 mm 0.00 in/hr0.0 mm/hr 0.00 in0.0 mm
07:00 PM 89.2°F31.8°C -5537.2°C - 14.0 mph N22.5 kmh N 18.1 mph29.1 kmh 25.13 in851.0 mb 0.00 in0.0 mm 0.00 in/hr0.0 mm/hr 0.00 in0.0 mm
07:05 PM 90.0°F32.2°C -5537.2°C - 11.0 mph N17.7 kmh N 16.3 mph26.2 kmh 25.13 in851.0 mb 0.00 in0.0 mm 0.00 in/hr0.0 mm/hr 0.00 in0.0 mm
07:10 PM 89.6°F32.0°C -5537.2°C - 10.0 mph N16.1 kmh N 18.6 mph29.9 kmh 25.13 in851.0 mb 0.00 in0.0 mm 0.00 in/hr0.0 mm/hr 0.00 in0.0 mm
07:15 PM 89.4°F31.9°C -5537.2°C - 12.0 mph N19.3 kmh N 20.6 mph33.2 kmh 25.13 in851.0 mb 0.00 in0.0 mm 0.00 in/hr0.0 mm/hr 0.00 in0.0 mm
07:20 PM 88.9°F31.6°C -5537.2°C - 13.0 mph N20.9 kmh N 19.0 mph30.6 kmh 25.13 in851.0 mb 0.00 in0.0 mm 0.00 in/hr0.0 mm/hr 0.00 in0.0 mm
07:25 PM 89.2°F31.8°C -5537.2°C - 12.0 mph N19.3 kmh N 18.6 mph29.9 kmh 25.13 in851.0 mb 0.00 in0.0 mm 0.00 in/hr0.0 mm/hr 0.00 in0.0 mm
07:30 PM 89.2°F31.8°C -5537.2°C - 11.0 mph N17.7 kmh N 17.2 mph27.7 kmh 25.13 in851.0 mb 0.00 in0.0 mm 0.00 in/hr0.0 mm/hr 0.00 in0.0 mm
07:35 PM 88.9°F31.6°C -5537.2°C - 10.0 mph NNE16.1 kmh NNE 14.3 mph23.0 kmh 25.13 in851.0 mb 0.00 in0.0 mm 0.00 in/hr0.0 mm/hr 0.00 in0.0 mm
07:40 PM 88.3°F31.3°C -5537.2°C - 10.0 mph NNE16.1 kmh NNE 17.2 mph27.7 kmh 25.13 in851.0 mb 0.00 in0.0 mm 0.00 in/hr0.0 mm/hr 0.00 in0.0 mm
07:45 PM 88.0°F31.1°C -5537.2°C - 10.0 mph NNE16.1 kmh NNE 14.3 mph23.0 kmh 25.13 in851.0 mb 0.00 in0.0 mm 0.00 in/hr0.0 mm/hr 0.00 in0.0 mm
07:50 PM 88.0°F31.1°C -5537.2°C - 9.0 mph N14.5 kmh N 15.4 mph24.8 kmh 25.13 in851.0 mb 0.00 in0.0 mm 0.00 in/hr0.0 mm/hr 0.00 in0.0 mm
07:55 PM 87.6°F30.9°C -5537.2°C - 9.0 mph NNE14.5 kmh NNE 13.4 mph21.6 kmh 25.13 in851.0 mb 0.00 in0.0 mm 0.00 in/hr0.0 mm/hr 0.00 in0.0 mm
08:00 PM 87.1°F30.6°C -5537.2°C - 7.0 mph NNE11.3 kmh NNE 9.2 mph14.8 kmh 25.16 in852.0 mb 0.00 in0.0 mm 0.00 in/hr0.0 mm/hr 0.00 in0.0 mm
08:05 PM 86.9°F30.5°C -5537.2°C - 6.0 mph NE9.7 kmh NE 10.5 mph16.9 kmh 25.16 in852.0 mb 0.00 in0.0 mm 0.00 in/hr0.0 mm/hr 0.00 in0.0 mm
08:10 PM 86.4°F30.2°C -5537.2°C - 6.0 mph NNE9.7 kmh NNE 9.6 mph15.4 kmh 25.16 in852.0 mb 0.00 in0.0 mm 0.00 in/hr0.0 mm/hr 0.00 in0.0 mm
08:15 PM 85.8°F29.9°C -5537.2°C - 4.0 mph NE6.4 kmh NE 8.3 mph13.4 kmh 25.16 in852.0 mb 0.00 in0.0 mm 0.00 in/hr0.0 mm/hr 0.00 in0.0 mm
08:20 PM 85.3°F29.6°C -5537.2°C - 3.0 mph NE4.8 kmh NE 6.9 mph11.1 kmh 25.16 in852.0 mb 0.00 in0.0 mm 0.00 in/hr0.0 mm/hr 0.00 in0.0 mm
08:25 PM 84.9°F29.4°C -5537.2°C - 4.0 mph NE6.4 kmh NE 6.3 mph10.1 kmh 25.16 in852.0 mb 0.00 in0.0 mm 0.00 in/hr0.0 mm/hr 0.00 in0.0 mm
08:30 PM 84.9°F29.4°C -5537.2°C - 3.0 mph NE4.8 kmh NE 5.4 mph8.7 kmh 25.16 in852.0 mb 0.00 in0.0 mm 0.00 in/hr0.0 mm/hr 0.00 in0.0 mm
08:35 PM 85.1°F29.5°C -5537.2°C - 3.0 mph ENE4.8 kmh ENE 11.2 mph18.0 kmh 25.16 in852.0 mb 0.00 in0.0 mm 0.00 in/hr0.0 mm/hr 0.00 in0.0 mm
08:40 PM 84.9°F29.4°C -5537.2°C - 4.0 mph E6.4 kmh E 7.4 mph11.9 kmh 25.16 in852.0 mb 0.00 in0.0 mm 0.00 in/hr0.0 mm/hr 0.00 in0.0 mm
08:45 PM 85.1°F29.5°C -5537.2°C - 4.0 mph ENE6.4 kmh ENE 7.4 mph11.9 kmh 25.16 in852.0 mb 0.00 in0.0 mm 0.00 in/hr0.0 mm/hr 0.00 in0.0 mm
08:50 PM 84.9°F29.4°C -5537.2°C - 4.0 mph ENE6.4 kmh ENE 9.6 mph15.4 kmh 25.16 in852.0 mb 0.00 in0.0 mm 0.00 in/hr0.0 mm/hr 0.00 in0.0 mm
08:55 PM 84.7°F29.3°C -5537.2°C - 4.0 mph E6.4 kmh E 10.5 mph16.9 kmh 25.16 in852.0 mb 0.00 in0.0 mm 0.00 in/hr0.0 mm/hr 0.00 in0.0 mm
09:00 PM 84.2°F29.0°C -5537.2°C - 3.0 mph SE4.8 kmh SE 4.9 mph7.9 kmh 25.19 in853.0 mb 0.00 in0.0 mm 0.00 in/hr0.0 mm/hr 0.00 in0.0 mm
09:05 PM 83.7°F28.7°C -5537.2°C - 1.0 mph SE1.6 kmh SE 5.8 mph9.3 kmh 25.19 in853.0 mb 0.00 in0.0 mm 0.00 in/hr0.0 mm/hr 0.00 in0.0 mm
09:10 PM 83.5°F28.6°C -5537.2°C - 2.0 mph E3.2 kmh E 6.9 mph11.1 kmh 25.19 in853.0 mb 0.00 in0.0 mm 0.00 in/hr0.0 mm/hr 0.00 in0.0 mm
09:15 PM 83.7°F28.7°C -5537.2°C - 3.0 mph E4.8 kmh E 12.1 mph19.5 kmh 25.19 in853.0 mb 0.00 in0.0 mm 0.00 in/hr0.0 mm/hr 0.00 in0.0 mm
09:20 PM 83.1°F28.4°C 28.9°F-1.7°C 14% 4.0 mph SSE6.4 kmh SSE 6.7 mph10.8 kmh 25.19 in853.0 mb 0.00 in0.0 mm 0.00 in/hr0.0 mm/hr 0.00 in0.0 mm
09:25 PM 82.9°F28.3°C 28.8°F-1.8°C 14% 5.0 mph S8.0 kmh S 8.7 mph14.0 kmh 25.19 in853.0 mb 0.00 in0.0 mm 0.00 in/hr0.0 mm/hr 0.00 in0.0 mm
09:30 PM 82.6°F28.1°C 28.6°F-1.9°C 14% 5.0 mph S8.0 kmh S 6.9 mph11.1 kmh 25.19 in853.0 mb 0.00 in0.0 mm 0.00 in/hr0.0 mm/hr 0.00 in0.0 mm
09:35 PM 82.2°F27.9°C 35.8°F2.1°C 19% 5.0 mph S8.0 kmh S 10.1 mph16.3 kmh 25.19 in853.0 mb 0.00 in0.0 mm 0.00 in/hr0.0 mm/hr 0.00 in0.0 mm
09:40 PM 81.9°F27.7°C 35.6°F2.0°C 19% 5.0 mph S8.0 kmh S 6.9 mph11.1 kmh 25.19 in853.0 mb 0.00 in0.0 mm 0.00 in/hr0.0 mm/hr 0.00 in0.0 mm
09:45 PM 81.3°F27.4°C 36.3°F2.4°C 20% 4.0 mph SW6.4 kmh SW 6.3 mph10.1 kmh 25.22 in854.0 mb 0.00 in0.0 mm 0.00 in/hr0.0 mm/hr 0.00 in0.0 mm
09:50 PM 81.1°F27.3°C 36.3°F2.4°C 20% 3.0 mph SW4.8 kmh SW 4.9 mph7.9 kmh 25.22 in854.0 mb 0.00 in0.0 mm 0.00 in/hr0.0 mm/hr 0.00 in0.0 mm
09:55 PM 81.1°F27.3°C 36.3°F2.4°C 20% 3.0 mph SW4.8 kmh SW 3.6 mph5.8 kmh 25.22 in854.0 mb 0.00 in0.0 mm 0.00 in/hr0.0 mm/hr 0.00 in0.0 mm
10:00 PM 81.0°F27.2°C 37.4°F3.0°C 21% 1.0 mph SW1.6 kmh SW 3.6 mph5.8 kmh 25.22 in854.0 mb 0.00 in0.0 mm 0.00 in/hr0.0 mm/hr 0.00 in0.0 mm
10:05 PM 79.9°F26.6°C 37.6°F3.1°C 22% 2.0 mph SW3.2 kmh SW 4.5 mph7.2 kmh 25.22 in854.0 mb 0.00 in0.0 mm 0.00 in/hr0.0 mm/hr 0.00 in0.0 mm
10:10 PM 78.8°F26.0°C 39.0°F3.9°C 24% 2.0 mph SW3.2 kmh SW 4.9 mph7.9 kmh 25.22 in854.0 mb 0.00 in0.0 mm 0.00 in/hr0.0 mm/hr 0.00 in0.0 mm
10:15 PM 79.2°F26.2°C 39.2°F4.0°C 24% 2.0 mph WSW3.2 kmh WSW 4.9 mph7.9 kmh 25.22 in854.0 mb 0.00 in0.0 mm 0.00 in/hr0.0 mm/hr 0.00 in0.0 mm
10:20 PM 79.9°F26.6°C 37.6°F3.1°C 22% 3.0 mph W4.8 kmh W 4.9 mph7.9 kmh 25.22 in854.0 mb 0.00 in0.0 mm 0.00 in/hr0.0 mm/hr 0.00 in0.0 mm
10:26 PM 80.2°F26.8°C 37.9°F3.3°C 22% 3.0 mph W4.8 kmh W 4.0 mph6.4 kmh 25.22 in854.0 mb 0.00 in0.0 mm 0.00 in/hr0.0 mm/hr 0.00 in0.0 mm
10:31 PM 79.9°F26.6°C 38.8°F3.8°C 23% 3.0 mph WNW4.8 kmh WNW 5.8 mph9.3 kmh 25.22 in854.0 mb 0.00 in0.0 mm 0.00 in/hr0.0 mm/hr 0.00 in0.0 mm
10:36 PM 79.3°F26.3°C 40.5°F4.7°C 25% 3.0 mph N4.8 kmh N 4.9 mph7.9 kmh 25.22 in854.0 mb 0.00 in0.0 mm 0.00 in/hr0.0 mm/hr 0.00 in0.0 mm
10:41 PM 79.0°F26.1°C 40.1°F4.5°C 25% 1.0 mph NNE1.6 kmh NNE -- 25.22 in854.0 mb 0.00 in0.0 mm 0.00 in/hr0.0 mm/hr 0.00 in0.0 mm
10:46 PM 78.6°F25.9°C 39.9°F4.4°C 25% Calm Calm -- 25.19 in853.0 mb 0.00 in0.0 mm 0.00 in/hr0.0 mm/hr 0.00 in0.0 mm
10:51 PM 78.6°F25.9°C 39.9°F4.4°C 25% Calm Calm -- 25.19 in853.0 mb 0.00 in0.0 mm 0.00 in/hr0.0 mm/hr 0.00 in0.0 mm
10:56 PM 78.4°F25.8°C 39.7°F4.3°C 25% Calm Calm 3.6 mph5.8 kmh 25.19 in853.0 mb 0.00 in0.0 mm 0.00 in/hr0.0 mm/hr 0.00 in0.0 mm
11:01 PM 78.3°F25.7°C 40.5°F4.7°C 26% Calm Calm 3.1 mph5.0 kmh 25.19 in853.0 mb 0.00 in0.0 mm 0.00 in/hr0.0 mm/hr 0.00 in0.0 mm
11:06 PM 77.9°F25.5°C 40.3°F4.6°C 26% Calm Calm 2.7 mph4.3 kmh 25.19 in853.0 mb 0.00 in0.0 mm 0.00 in/hr0.0 mm/hr 0.00 in0.0 mm
11:11 PM 77.5°F25.3°C 40.8°F4.9°C 27% Calm Calm -- 25.19 in853.0 mb 0.00 in0.0 mm 0.00 in/hr0.0 mm/hr 0.00 in0.0 mm
11:16 PM 78.1°F25.6°C 38.3°F3.5°C 24% Calm Calm -- 25.19 in853.0 mb 0.00 in0.0 mm 0.00 in/hr0.0 mm/hr 0.00 in0.0 mm
11:21 PM 78.4°F25.8°C 37.6°F3.1°C 23% Calm Calm 2.7 mph4.3 kmh 25.19 in853.0 mb 0.00 in0.0 mm 0.00 in/hr0.0 mm/hr 0.00 in0.0 mm
11:26 PM 78.6°F25.9°C 36.5°F2.5°C 22% 2.0 mph NNE3.2 kmh NNE 6.3 mph10.1 kmh 25.19 in853.0 mb 0.00 in0.0 mm 0.00 in/hr0.0 mm/hr 0.00 in0.0 mm
11:31 PM 78.6°F25.9°C 36.5°F2.5°C 22% 4.0 mph NNE6.4 kmh NNE 5.4 mph8.7 kmh 25.19 in853.0 mb 0.00 in0.0 mm 0.00 in/hr0.0 mm/hr 0.00 in0.0 mm
11:36 PM 78.6°F25.9°C 36.5°F2.5°C 22% 2.0 mph NNE3.2 kmh NNE 3.6 mph5.8 kmh 25.19 in853.0 mb 0.00 in0.0 mm 0.00 in/hr0.0 mm/hr 0.00 in0.0 mm
11:41 PM 78.4°F25.8°C 36.5°F2.5°C 22% 2.0 mph NNE3.2 kmh NNE 6.3 mph10.1 kmh 25.19 in853.0 mb 0.00 in0.0 mm 0.00 in/hr0.0 mm/hr 0.00 in0.0 mm
11:46 PM 77.7°F25.4°C 37.0°F2.8°C 23% 3.0 mph NNE4.8 kmh NNE 5.8 mph9.3 kmh 25.19 in853.0 mb 0.00 in0.0 mm 0.00 in/hr0.0 mm/hr 0.00 in0.0 mm
11:51 PM 78.6°F25.9°C 36.5°F2.5°C 22% 3.0 mph NE4.8 kmh NE 7.8 mph12.6 kmh 25.19 in853.0 mb 0.00 in0.0 mm 0.00 in/hr0.0 mm/hr 0.00 in0.0 mm
11:56 PM 79.0°F26.1°C 35.8°F2.1°C 21% 4.0 mph NE6.4 kmh NE 7.8 mph12.6 kmh 25.19 in853.0 mb 0.00 in0.0 mm 0.00 in/hr0.0 mm/hr 0.00 in0.0 mm